Loretto, Pennsylvania
Current Conditions -  °F | °C
As of 7:54 PM on Friday 28 Nov 2014 (Local Time) from KJST Reporting Station
Overcast Overcast  
Wind Chill: 13°   Ceiling: 2400
Heat Index: 20°   Visibility: 10mi
Dew Point: 12°   Wind: 5mph
Humidity: 71%   Direction: 220°SW
Pressure: 30.15"   Gusts: NA
Location:  40.5°N, 78.63°W
Report Text: KJST 290054Z AUTO 22004KT 10SM OVC024 M07/M11 A3015 RMK AO2 SLP245 T10671111
Loading
Personal Weather Stations






























Interactive Weather Map New forecast layout! Learn more

10-Day Weather Forecast

Advertisements
Track Severe Weather on mobile